sensor_id;sensor_type;location;lat;lon;timestamp;pressure;altitude;pressure_sealevel;temperature;humidity
47080;BME280;33067;49.296;14.470;2023-07-13T00:01:10;96704.11;;;26.34;38.47
47080;BME280;33067;49.296;14.470;2023-07-13T00:03:36;96703.27;;;26.36;38.20
47080;BME280;33067;49.296;14.470;2023-07-13T00:06:02;96701.21;;;26.36;37.97
47080;BME280;33067;49.296;14.470;2023-07-13T00:08:31;96700.17;;;26.16;37.86
47080;BME280;33067;49.296;14.470;2023-07-13T00:10:53;96698.37;;;26.35;38.45
47080;BME280;33067;49.296;14.470;2023-07-13T00:13:18;96688.09;;;26.33;38.54
47080;BME280;33067;49.296;14.470;2023-07-13T00:15:45;96683.51;;;26.28;38.81
47080;BME280;33067;49.296;14.470;2023-07-13T00:18:10;96673.50;;;26.32;38.89
47080;BME280;33067;49.296;14.470;2023-07-13T00:20:35;96664.43;;;26.14;39.28
47080;BME280;33067;49.296;14.470;2023-07-13T00:23:01;96658.58;;;26.16;39.44
47080;BME280;33067;49.296;14.470;2023-07-13T00:25:26;96652.75;;;26.11;39.57
47080;BME280;33067;49.296;14.470;2023-07-13T00:27:52;96653.22;;;26.30;39.78
47080;BME280;33067;49.296;14.470;2023-07-13T00:30:18;96660.17;;;26.18;39.87
47080;BME280;33067;49.296;14.470;2023-07-13T00:32:43;96662.15;;;26.09;39.87
47080;BME280;33067;49.296;14.470;2023-07-13T00:35:10;96662.42;;;26.12;39.79
47080;BME280;33067;49.296;14.470;2023-07-13T00:37:35;96663.58;;;26.23;39.66
47080;BME280;33067;49.296;14.470;2023-07-13T00:40:01;96661.89;;;26.34;39.48
47080;BME280;33067;49.296;14.470;2023-07-13T00:42:26;96664.36;;;26.20;39.54
47080;BME280;33067;49.296;14.470;2023-07-13T00:45:04;96666.81;;;26.00;39.50
47080;BME280;33067;49.296;14.470;2023-07-13T00:47:17;96655.22;;;26.34;39.25
47080;BME280;33067;49.296;14.470;2023-07-13T00:49:43;96646.98;;;26.24;39.11
47080;BME280;33067;49.296;14.470;2023-07-13T00:52:09;96648.66;;;26.14;39.70
47080;BME280;33067;49.296;14.470;2023-07-13T00:54:39;96637.49;;;26.18;39.66
47080;BME280;33067;49.296;14.470;2023-07-13T00:57:03;96630.74;;;26.33;39.66
47080;BME280;33067;49.296;14.470;2023-07-13T00:59:26;96627.40;;;26.07;40.39
47080;BME280;33067;49.296;14.470;2023-07-13T01:01:51;96625.89;;;25.81;40.56
47080;BME280;33067;49.296;14.470;2023-07-13T01:04:19;96624.77;;;25.84;40.67
47080;BME280;33067;49.296;14.470;2023-07-13T01:06:43;96626.61;;;25.98;40.71
47080;BME280;33067;49.296;14.470;2023-07-13T01:09:09;96625.11;;;25.86;40.51
47080;BME280;33067;49.296;14.470;2023-07-13T01:11:35;96627.87;;;25.69;40.45
47080;BME280;33067;49.296;14.470;2023-07-13T01:14:00;96624.88;;;26.18;39.40
47080;BME280;33067;49.296;14.470;2023-07-13T01:16:29;96628.71;;;26.15;39.76
47080;BME280;33067;49.296;14.470;2023-07-13T01:18:51;96626.57;;;25.94;40.16
47080;BME280;33067;49.296;14.470;2023-07-13T01:21:17;96623.97;;;25.99;40.13
47080;BME280;33067;49.296;14.470;2023-07-13T01:23:42;96619.34;;;26.21;39.92
47080;BME280;33067;49.296;14.470;2023-07-13T01:26:08;96624.11;;;25.87;40.34
47080;BME280;33067;49.296;14.470;2023-07-13T01:28:35;96622.07;;;25.83;40.28
47080;BME280;33067;49.296;14.470;2023-07-13T01:31:00;96621.79;;;25.97;39.89
47080;BME280;33067;49.296;14.470;2023-07-13T01:33:25;96623.66;;;25.88;39.92
47080;BME280;33067;49.296;14.470;2023-07-13T01:35:50;96627.10;;;25.62;39.83
47080;BME280;33067;49.296;14.470;2023-07-13T01:38:18;96633.65;;;25.61;39.89
47080;BME280;33067;49.296;14.470;2023-07-13T01:40:42;96635.55;;;25.51;39.76
47080;BME280;33067;49.296;14.470;2023-07-13T01:43:08;96635.54;;;25.82;40.16
47080;BME280;33067;49.296;14.470;2023-07-13T01:45:33;96636.84;;;25.56;40.30
47080;BME280;33067;49.296;14.470;2023-07-13T01:47:59;96639.88;;;25.48;40.96
47080;BME280;33067;49.296;14.470;2023-07-13T01:50:25;96640.29;;;25.37;40.61
47080;BME280;33067;49.296;14.470;2023-07-13T01:52:51;96646.49;;;25.44;40.57
47080;BME280;33067;49.296;14.470;2023-07-13T01:55:16;96650.37;;;25.53;40.41
47080;BME280;33067;49.296;14.470;2023-07-13T01:57:42;96646.89;;;25.77;40.60
47080;BME280;33067;49.296;14.470;2023-07-13T02:00:10;96649.83;;;25.54;40.45
47080;BME280;33067;49.296;14.470;2023-07-13T02:02:34;96648.07;;;25.20;40.65
47080;BME280;33067;49.296;14.470;2023-07-13T02:04:59;96648.99;;;25.17;40.82
47080;BME280;33067;49.296;14.470;2023-07-13T02:07:25;96656.95;;;25.63;41.03
47080;BME280;33067;49.296;14.470;2023-07-13T02:09:50;96662.33;;;25.33;41.17
47080;BME280;33067;49.296;14.470;2023-07-13T02:12:58;96668.90;;;25.39;40.41
47080;BME280;33067;49.296;14.470;2023-07-13T02:15:24;96668.69;;;25.23;40.33
47080;BME280;33067;49.296;14.470;2023-07-13T02:17:50;96667.81;;;25.77;40.10
47080;BME280;33067;49.296;14.470;2023-07-13T02:20:15;96670.12;;;25.39;40.51
47080;BME280;33067;49.296;14.470;2023-07-13T02:22:40;96670.21;;;25.27;40.90
47080;BME280;33067;49.296;14.470;2023-07-13T02:25:06;96668.66;;;25.35;40.84
47080;BME280;33067;49.296;14.470;2023-07-13T02:27:31;96668.60;;;25.53;41.09
47080;BME280;33067;49.296;14.470;2023-07-13T02:29:59;96670.42;;;25.18;41.69
47080;BME280;33067;49.296;14.470;2023-07-13T02:32:24;96674.91;;;25.14;41.90
47080;BME280;33067;49.296;14.470;2023-07-13T02:34:48;96676.78;;;25.33;41.84
47080;BME280;33067;49.296;14.470;2023-07-13T02:37:15;96678.45;;;25.26;42.05
47080;BME280;33067;49.296;14.470;2023-07-13T02:39:40;96678.17;;;25.42;42.06
47080;BME280;33067;49.296;14.470;2023-07-13T02:42:06;96675.08;;;25.09;41.92
47080;BME280;33067;49.296;14.470;2023-07-13T02:44:31;96672.95;;;25.55;41.94
47080;BME280;33067;49.296;14.470;2023-07-13T02:46:58;96669.54;;;25.28;41.82
47080;BME280;33067;49.296;14.470;2023-07-13T02:49:23;96672.43;;;25.08;41.90
47080;BME280;33067;49.296;14.470;2023-07-13T02:51:48;96675.69;;;25.14;41.43
47080;BME280;33067;49.296;14.470;2023-07-13T02:54:14;96677.00;;;25.24;41.82
47080;BME280;33067;49.296;14.470;2023-07-13T02:56:40;96679.41;;;25.06;41.86
47080;BME280;33067;49.296;14.470;2023-07-13T02:59:06;96681.15;;;25.07;41.84
47080;BME280;33067;49.296;14.470;2023-07-13T03:01:32;96678.18;;;25.42;41.52
47080;BME280;33067;49.296;14.470;2023-07-13T03:03:59;96680.63;;;25.22;41.27
47080;BME280;33067;49.296;14.470;2023-07-13T03:06:23;96678.62;;;24.91;41.66
47080;BME280;33067;49.296;14.470;2023-07-13T03:08:49;96681.94;;;25.12;41.34
47080;BME280;33067;49.296;14.470;2023-07-13T03:11:19;96684.28;;;25.09;41.22
47080;BME280;33067;49.296;14.470;2023-07-13T03:13:41;96691.58;;;24.98;40.97
47080;BME280;33067;49.296;14.470;2023-07-13T03:16:07;96693.27;;;25.23;40.41
47080;BME280;33067;49.296;14.470;2023-07-13T03:18:32;96694.19;;;25.29;40.24
47080;BME280;33067;49.296;14.470;2023-07-13T03:20:58;96692.30;;;25.23;39.87
47080;BME280;33067;49.296;14.470;2023-07-13T03:23:25;96689.36;;;25.15;39.36
47080;BME280;33067;49.296;14.470;2023-07-13T03:25:48;96691.50;;;25.12;39.70
47080;BME280;33067;49.296;14.470;2023-07-13T03:28:15;96693.91;;;24.93;39.56
47080;BME280;33067;49.296;14.470;2023-07-13T03:30:41;96696.69;;;25.08;39.71
47080;BME280;33067;49.296;14.470;2023-07-13T03:33:06;96697.61;;;25.00;39.80
47080;BME280;33067;49.296;14.470;2023-07-13T03:35:31;96696.80;;;25.07;39.70
47080;BME280;33067;49.296;14.470;2023-07-13T03:37:57;96695.92;;;24.96;39.67
47080;BME280;33067;49.296;14.470;2023-07-13T03:40:23;96697.25;;;25.43;40.02
47080;BME280;33067;49.296;14.470;2023-07-13T03:42:51;96698.06;;;24.96;40.91
47080;BME280;33067;49.296;14.470;2023-07-13T03:45:14;96694.46;;;24.91;41.06
47080;BME280;33067;49.296;14.470;2023-07-13T03:47:39;96696.95;;;24.73;41.07
47080;BME280;33067;49.296;14.470;2023-07-13T03:50:06;96703.28;;;25.27;40.99
47080;BME280;33067;49.296;14.470;2023-07-13T03:52:31;96705.53;;;25.16;40.71
47080;BME280;33067;49.296;14.470;2023-07-13T03:54:57;96704.86;;;25.00;40.33
47080;BME280;33067;49.296;14.470;2023-07-13T03:57:23;96709.71;;;25.10;39.74
47080;BME280;33067;49.296;14.470;2023-07-13T03:59:48;96709.38;;;25.31;39.47
47080;BME280;33067;49.296;14.470;2023-07-13T04:02:14;96708.61;;;25.21;39.61
47080;BME280;33067;49.296;14.470;2023-07-13T04:04:40;96709.84;;;25.17;39.25
47080;BME280;33067;49.296;14.470;2023-07-13T04:07:06;96711.41;;;25.19;39.48
47080;BME280;33067;49.296;14.470;2023-07-13T04:09:31;96714.69;;;25.30;39.40
47080;BME280;33067;49.296;14.470;2023-07-13T04:11:57;96716.55;;;24.99;39.52
47080;BME280;33067;49.296;14.470;2023-07-13T04:14:22;96719.37;;;25.27;39.60
47080;BME280;33067;49.296;14.470;2023-07-13T04:16:48;96717.94;;;24.90;39.78
47080;BME280;33067;49.296;14.470;2023-07-13T04:19:14;96718.02;;;25.16;39.77
47080;BME280;33067;49.296;14.470;2023-07-13T04:21:39;96721.75;;;25.30;39.52
47080;BME280;33067;49.296;14.470;2023-07-13T04:24:06;96721.48;;;25.40;39.37
47080;BME280;33067;49.296;14.470;2023-07-13T04:26:31;96725.72;;;25.46;39.31
47080;BME280;33067;49.296;14.470;2023-07-13T04:28:57;96724.63;;;25.37;39.39
47080;BME280;33067;49.296;14.470;2023-07-13T04:31:22;96725.90;;;25.12;39.49
47080;BME280;33067;49.296;14.470;2023-07-13T04:33:49;96728.07;;;25.02;39.21
47080;BME280;33067;49.296;14.470;2023-07-13T04:36:14;96727.37;;;25.32;39.19
47080;BME280;33067;49.296;14.470;2023-07-13T04:38:40;96728.46;;;25.46;39.38
47080;BME280;33067;49.296;14.470;2023-07-13T04:41:07;96726.48;;;25.32;39.15
47080;BME280;33067;49.296;14.470;2023-07-13T04:43:32;96728.97;;;25.11;39.09
47080;BME280;33067;49.296;14.470;2023-07-13T04:45:57;96727.83;;;25.08;39.21
47080;BME280;33067;49.296;14.470;2023-07-13T04:48:23;96727.79;;;24.96;39.44
47080;BME280;33067;49.296;14.470;2023-07-13T04:50:54;96728.39;;;25.43;39.40
47080;BME280;33067;49.296;14.470;2023-07-13T04:53:14;96732.13;;;24.98;39.35
47080;BME280;33067;49.296;14.470;2023-07-13T04:55:39;96729.12;;;25.35;39.20
47080;BME280;33067;49.296;14.470;2023-07-13T04:58:05;96726.49;;;25.70;38.95
47080;BME280;33067;49.296;14.470;2023-07-13T05:00:31;96720.33;;;25.40;38.98
47080;BME280;33067;49.296;14.470;2023-07-13T05:02:58;96720.23;;;25.50;38.96
47080;BME280;33067;49.296;14.470;2023-07-13T05:05:22;96720.10;;;25.81;38.85
47080;BME280;33067;49.296;14.470;2023-07-13T05:07:48;96724.25;;;25.49;38.79
47080;BME280;33067;49.296;14.470;2023-07-13T05:10:13;96723.81;;;25.61;38.58
47080;BME280;33067;49.296;14.470;2023-07-13T05:12:39;96723.83;;;25.48;38.17
47080;BME280;33067;49.296;14.470;2023-07-13T05:15:06;96727.86;;;25.65;37.74
47080;BME280;33067;49.296;14.470;2023-07-13T05:17:31;96731.23;;;25.82;37.71
47080;BME280;33067;49.296;14.470;2023-07-13T05:19:57;96732.32;;;25.78;37.57
47080;BME280;33067;49.296;14.470;2023-07-13T05:22:22;96733.68;;;25.60;37.86
47080;BME280;33067;49.296;14.470;2023-07-13T05:24:50;96737.83;;;25.54;37.69
47080;BME280;33067;49.296;14.470;2023-07-13T05:27:13;96741.33;;;25.75;37.86
47080;BME280;33067;49.296;14.470;2023-07-13T05:29:39;96739.37;;;25.48;37.98
47080;BME280;33067;49.296;14.470;2023-07-13T05:32:05;96740.80;;;25.37;37.60
47080;BME280;33067;49.296;14.470;2023-07-13T05:34:30;96746.77;;;25.56;37.75
47080;BME280;33067;49.296;14.470;2023-07-13T05:36:56;96745.88;;;25.38;37.89
47080;BME280;33067;49.296;14.470;2023-07-13T05:39:21;96748.32;;;25.79;37.35
47080;BME280;33067;49.296;14.470;2023-07-13T05:41:46;96750.94;;;25.66;37.39
47080;BME280;33067;49.296;14.470;2023-07-13T05:44:12;96752.64;;;25.59;36.96
47080;BME280;33067;49.296;14.470;2023-07-13T05:46:38;96753.56;;;25.85;36.67
47080;BME280;33067;49.296;14.470;2023-07-13T05:49:04;96751.91;;;25.72;36.32
47080;BME280;33067;49.296;14.470;2023-07-13T05:51:29;96752.29;;;26.25;35.91
47080;BME280;33067;49.296;14.470;2023-07-13T05:53:54;96756.09;;;26.05;36.49
47080;BME280;33067;49.296;14.470;2023-07-13T05:56:19;96757.49;;;26.12;36.31
47080;BME280;33067;49.296;14.470;2023-07-13T05:58:45;96757.60;;;25.97;36.74
47080;BME280;33067;49.296;14.470;2023-07-13T06:01:13;96758.02;;;25.96;36.11
47080;BME280;33067;49.296;14.470;2023-07-13T06:03:36;96758.43;;;25.98;35.29
47080;BME280;33067;49.296;14.470;2023-07-13T06:06:02;96759.76;;;26.28;35.20
47080;BME280;33067;49.296;14.470;2023-07-13T06:08:27;96758.89;;;26.12;35.23
47080;BME280;33067;49.296;14.470;2023-07-13T06:10:54;96760.31;;;26.15;34.70
47080;BME280;33067;49.296;14.470;2023-07-13T06:13:18;96759.35;;;26.10;34.35
47080;BME280;33067;49.296;14.470;2023-07-13T06:15:48;96765.00;;;26.31;34.17
47080;BME280;33067;49.296;14.470;2023-07-13T06:18:10;96763.98;;;26.54;33.92
47080;BME280;33067;49.296;14.470;2023-07-13T06:20:35;96764.62;;;26.10;34.34
47080;BME280;33067;49.296;14.470;2023-07-13T06:23:02;96761.55;;;26.42;33.98
47080;BME280;33067;49.296;14.470;2023-07-13T06:25:27;96762.02;;;26.49;33.48
47080;BME280;33067;49.296;14.470;2023-07-13T06:27:53;96759.69;;;26.37;33.64
47080;BME280;33067;49.296;14.470;2023-07-13T06:30:18;96763.55;;;26.37;33.59
47080;BME280;33067;49.296;14.470;2023-07-13T06:32:44;96764.72;;;26.72;32.87
47080;BME280;33067;49.296;14.470;2023-07-13T06:35:10;96761.93;;;26.82;32.62
47080;BME280;33067;49.296;14.470;2023-07-13T06:37:35;96760.78;;;27.11;32.55
47080;BME280;33067;49.296;14.470;2023-07-13T06:40:01;96755.61;;;27.09;32.31
47080;BME280;33067;49.296;14.470;2023-07-13T06:42:27;96757.26;;;27.50;31.83
47080;BME280;33067;49.296;14.470;2023-07-13T06:44:53;96758.37;;;27.41;31.92
47080;BME280;33067;49.296;14.470;2023-07-13T06:47:18;96756.95;;;27.49;31.51
47080;BME280;33067;49.296;14.470;2023-07-13T06:49:44;96754.67;;;28.23;30.40
47080;BME280;33067;49.296;14.470;2023-07-13T06:52:09;96756.11;;;27.74;31.10
47080;BME280;33067;49.296;14.470;2023-07-13T06:54:35;96756.74;;;28.06;29.70
47080;BME280;33067;49.296;14.470;2023-07-13T06:57:01;96761.81;;;28.04;29.06
47080;BME280;33067;49.296;14.470;2023-07-13T06:59:26;96763.51;;;28.14;29.78
47080;BME280;33067;49.296;14.470;2023-07-13T07:01:52;96757.00;;;28.74;28.79
47080;BME280;33067;49.296;14.470;2023-07-13T07:04:18;96757.65;;;29.07;28.02
47080;BME280;33067;49.296;14.470;2023-07-13T07:06:43;96762.18;;;28.65;27.65
47080;BME280;33067;49.296;14.470;2023-07-13T07:09:09;96759.16;;;28.89;27.69
47080;BME280;33067;49.296;14.470;2023-07-13T07:11:34;96765.20;;;28.35;27.13
47080;BME280;33067;49.296;14.470;2023-07-13T07:14:00;96767.72;;;28.52;27.36
47080;BME280;33067;49.296;14.470;2023-07-13T07:16:26;96770.56;;;28.52;27.46
47080;BME280;33067;49.296;14.470;2023-07-13T07:18:51;96772.43;;;28.28;27.79
47080;BME280;33067;49.296;14.470;2023-07-13T07:21:17;96772.04;;;28.28;28.09
47080;BME280;33067;49.296;14.470;2023-07-13T07:23:48;96773.39;;;28.42;27.70
47080;BME280;33067;49.296;14.470;2023-07-13T07:26:08;96773.97;;;28.56;27.41
47080;BME280;33067;49.296;14.470;2023-07-13T07:28:34;96774.71;;;28.75;27.70
47080;BME280;33067;49.296;14.470;2023-07-13T07:31:00;96775.23;;;28.81;27.42
47080;BME280;33067;49.296;14.470;2023-07-13T07:33:25;96774.14;;;29.27;27.12
47080;BME280;33067;49.296;14.470;2023-07-13T07:35:51;96772.51;;;29.49;26.70
47080;BME280;33067;49.296;14.470;2023-07-13T07:38:17;96771.52;;;29.72;26.26
47080;BME280;33067;49.296;14.470;2023-07-13T07:40:43;96774.23;;;29.95;25.57
47080;BME280;33067;49.296;14.470;2023-07-13T07:43:09;96778.17;;;30.07;25.52
47080;BME280;33067;49.296;14.470;2023-07-13T07:45:34;96769.19;;;29.80;25.05
47080;BME280;33067;49.296;14.470;2023-07-13T07:48:00;96770.66;;;28.78;25.19
47080;BME280;33067;49.296;14.470;2023-07-13T07:50:25;96776.10;;;28.90;25.74
47080;BME280;33067;49.296;14.470;2023-07-13T07:52:51;96775.66;;;29.15;25.59
47080;BME280;33067;49.296;14.470;2023-07-13T07:55:17;96776.96;;;28.74;25.45
47080;BME280;33067;49.296;14.470;2023-07-13T07:57:42;96783.24;;;29.10;25.43
47080;BME280;33067;49.296;14.470;2023-07-13T08:00:08;96779.10;;;29.26;25.18
47080;BME280;33067;49.296;14.470;2023-07-13T08:02:33;96778.00;;;29.15;25.44
47080;BME280;33067;49.296;14.470;2023-07-13T08:04:59;96776.49;;;29.63;24.72
47080;BME280;33067;49.296;14.470;2023-07-13T08:07:25;96776.51;;;29.70;24.77
47080;BME280;33067;49.296;14.470;2023-07-13T08:09:52;96776.62;;;29.86;24.80
47080;BME280;33067;49.296;14.470;2023-07-13T08:12:16;96777.80;;;30.14;24.35
47080;BME280;33067;49.296;14.470;2023-07-13T08:14:42;96775.01;;;30.12;23.73
47080;BME280;33067;49.296;14.470;2023-07-13T08:17:07;96777.20;;;29.59;24.09
47080;BME280;33067;49.296;14.470;2023-07-13T08:19:33;96776.16;;;29.41;24.63
47080;BME280;33067;49.296;14.470;2023-07-13T08:21:59;96780.80;;;30.19;23.63
47080;BME280;33067;49.296;14.470;2023-07-13T08:24:24;96779.65;;;30.21;23.94
47080;BME280;33067;49.296;14.470;2023-07-13T08:26:51;96779.34;;;30.35;23.77
47080;BME280;33067;49.296;14.470;2023-07-13T08:29:16;96778.74;;;30.20;23.17
47080;BME280;33067;49.296;14.470;2023-07-13T08:31:41;96782.35;;;30.20;23.59
47080;BME280;33067;49.296;14.470;2023-07-13T08:34:07;96786.82;;;30.09;23.17
47080;BME280;33067;49.296;14.470;2023-07-13T08:36:32;96785.89;;;30.34;23.59
47080;BME280;33067;49.296;14.470;2023-07-13T08:38:58;96789.25;;;30.42;23.19
47080;BME280;33067;49.296;14.470;2023-07-13T08:41:24;96802.83;;;30.85;22.97
47080;BME280;33067;49.296;14.470;2023-07-13T08:43:52;96807.56;;;30.79;23.02
47080;BME280;33067;49.296;14.470;2023-07-13T08:46:19;96805.78;;;30.38;22.97
47080;BME280;33067;49.296;14.470;2023-07-13T08:48:44;96803.49;;;30.75;22.84
47080;BME280;33067;49.296;14.470;2023-07-13T08:51:16;96805.36;;;30.55;21.28
47080;BME280;33067;49.296;14.470;2023-07-13T08:53:37;96806.14;;;30.03;21.33
47080;BME280;33067;49.296;14.470;2023-07-13T08:55:59;96809.08;;;30.84;20.78
47080;BME280;33067;49.296;14.470;2023-07-13T08:58:24;96812.41;;;29.76;21.42
47080;BME280;33067;49.296;14.470;2023-07-13T09:00:55;96816.13;;;30.15;21.53
47080;BME280;33067;49.296;14.470;2023-07-13T09:03:21;96813.24;;;30.71;21.21
47080;BME280;33067;49.296;14.470;2023-07-13T09:05:41;96814.80;;;30.19;20.97
47080;BME280;33067;49.296;14.470;2023-07-13T09:08:19;96817.77;;;30.60;21.32
47080;BME280;33067;49.296;14.470;2023-07-13T09:10:36;96818.09;;;30.75;21.06
47080;BME280;33067;49.296;14.470;2023-07-13T09:13:06;96819.81;;;30.46;21.59
47080;BME280;33067;49.296;14.470;2023-07-13T09:15:27;96828.30;;;30.29;21.15
47080;BME280;33067;49.296;14.470;2023-07-13T09:17:51;96826.94;;;29.96;20.25
47080;BME280;33067;49.296;14.470;2023-07-13T09:20:20;96824.28;;;30.26;20.26
47080;BME280;33067;49.296;14.470;2023-07-13T09:22:41;96828.38;;;30.58;20.77
47080;BME280;33067;49.296;14.470;2023-07-13T09:25:13;96825.87;;;30.99;20.14
47080;BME280;33067;49.296;14.470;2023-07-13T09:27:36;96827.95;;;30.55;20.53
47080;BME280;33067;49.296;14.470;2023-07-13T09:30:04;96830.79;;;30.73;20.47
47080;BME280;33067;49.296;14.470;2023-07-13T09:32:24;96833.83;;;30.32;20.63
47080;BME280;33067;49.296;14.470;2023-07-13T09:34:53;96834.20;;;30.57;20.92
47080;BME280;33067;49.296;14.470;2023-07-13T09:37:13;96828.25;;;30.58;20.31
47080;BME280;33067;49.296;14.470;2023-07-13T09:39:41;96825.21;;;31.12;20.20
47080;BME280;33067;49.296;14.470;2023-07-13T09:42:11;96824.99;;;31.24;20.04
47080;BME280;33067;49.296;14.470;2023-07-13T09:44:33;96809.05;;;31.55;19.05
47080;BME280;33067;49.296;14.470;2023-07-13T09:46:56;96801.85;;;31.67;19.24
47080;BME280;33067;49.296;14.470;2023-07-13T09:49:24;96815.93;;;31.21;18.32
47080;BME280;33067;49.296;14.470;2023-07-13T09:51:47;96818.37;;;31.16;18.36
47080;BME280;33067;49.296;14.470;2023-07-13T09:54:20;96821.73;;;31.20;18.43
47080;BME280;33067;49.296;14.470;2023-07-13T09:56:38;96821.95;;;30.92;18.67
47080;BME280;33067;49.296;14.470;2023-07-13T09:59:04;96818.58;;;31.09;18.62
47080;BME280;33067;49.296;14.470;2023-07-13T10:01:34;96818.02;;;31.50;18.28
47080;BME280;33067;49.296;14.470;2023-07-13T10:03:55;96819.65;;;31.78;17.25
47080;BME280;33067;49.296;14.470;2023-07-13T10:06:22;96822.32;;;31.04;17.73
47080;BME280;33067;49.296;14.470;2023-07-13T10:08:47;96820.55;;;31.00;17.43
47080;BME280;33067;49.296;14.470;2023-07-13T10:11:18;96832.00;;;31.11;17.23
47080;BME280;33067;49.296;14.470;2023-07-13T10:13:42;96821.99;;;30.29;17.31
47080;BME280;33067;49.296;14.470;2023-07-13T10:16:04;96825.20;;;31.36;16.99
47080;BME280;33067;49.296;14.470;2023-07-13T10:18:33;96819.84;;;31.20;16.89
47080;BME280;33067;49.296;14.470;2023-07-13T10:21:00;96837.80;;;31.36;16.86
47080;BME280;33067;49.296;14.470;2023-07-13T10:23:23;96830.88;;;30.73;16.79
47080;BME280;33067;49.296;14.470;2023-07-13T10:25:46;96831.15;;;30.54;17.37
47080;BME280;33067;49.296;14.470;2023-07-13T10:28:20;96838.47;;;31.39;16.63
47080;BME280;33067;49.296;14.470;2023-07-13T10:30:41;96842.97;;;31.42;16.49
47080;BME280;33067;49.296;14.470;2023-07-13T10:33:05;96846.26;;;30.52;17.29
47080;BME280;33067;49.296;14.470;2023-07-13T10:35:30;96846.64;;;30.79;17.07
47080;BME280;33067;49.296;14.470;2023-07-13T10:37:57;96845.91;;;31.29;16.94
47080;BME280;33067;49.296;14.470;2023-07-13T10:40:22;96841.02;;;31.08;17.08
47080;BME280;33067;49.296;14.470;2023-07-13T10:42:47;96844.63;;;31.07;17.34
47080;BME280;33067;49.296;14.470;2023-07-13T10:45:14;96834.78;;;31.62;17.19
47080;BME280;33067;49.296;14.470;2023-07-13T10:47:36;96843.14;;;31.90;17.39
47080;BME280;33067;49.296;14.470;2023-07-13T10:50:02;96836.21;;;31.23;17.50
47080;BME280;33067;49.296;14.470;2023-07-13T10:52:41;96833.34;;;31.64;17.40
47080;BME280;33067;49.296;14.470;2023-07-13T10:54:54;96829.08;;;32.15;16.44
47080;BME280;33067;49.296;14.470;2023-07-13T10:57:21;96835.23;;;30.55;16.22
47080;BME280;33067;49.296;14.470;2023-07-13T10:59:47;96822.48;;;31.93;16.21
47080;BME280;33067;49.296;14.470;2023-07-13T11:02:15;96806.52;;;32.59;15.79
47080;BME280;33067;49.296;14.470;2023-07-13T11:04:41;96812.04;;;32.68;15.73
47080;BME280;33067;49.296;14.470;2023-07-13T11:07:10;96815.98;;;31.95;16.07
47080;BME280;33067;49.296;14.470;2023-07-13T11:09:35;96815.48;;;31.33;17.05
47080;BME280;33067;49.296;14.470;2023-07-13T11:11:56;96815.09;;;31.20;16.83
47080;BME280;33067;49.296;14.470;2023-07-13T11:14:30;96815.47;;;30.69;17.23
47080;BME280;33067;49.296;14.470;2023-07-13T11:16:46;96811.59;;;31.17;16.99
47080;BME280;33067;49.296;14.470;2023-07-13T11:21:35;96816.28;;;31.72;16.62
47080;BME280;33067;49.296;14.470;2023-07-13T11:24:03;96815.44;;;31.01;16.82
47080;BME280;33067;49.296;14.470;2023-07-13T11:26:39;96816.85;;;31.77;16.54
47080;BME280;33067;49.296;14.470;2023-07-13T11:28:52;96828.30;;;31.27;17.11
47080;BME280;33067;49.296;14.470;2023-07-13T11:31:20;96823.06;;;31.50;17.24
47080;BME280;33067;49.296;14.470;2023-07-13T11:33:52;96818.57;;;31.52;16.50
47080;BME280;33067;49.296;14.470;2023-07-13T11:36:14;96832.84;;;31.44;16.25
47080;BME280;33067;49.296;14.470;2023-07-13T11:38:37;96825.01;;;31.76;16.46
47080;BME280;33067;49.296;14.470;2023-07-13T11:41:03;96833.02;;;31.94;16.56
47080;BME280;33067;49.296;14.470;2023-07-13T11:43:25;96832.42;;;31.26;16.59
47080;BME280;33067;49.296;14.470;2023-07-13T11:45:51;96828.00;;;31.68;16.63
47080;BME280;33067;49.296;14.470;2023-07-13T11:48:19;96830.70;;;31.71;16.47
47080;BME280;33067;49.296;14.470;2023-07-13T11:50:55;96831.18;;;31.61;16.84
47080;BME280;33067;49.296;14.470;2023-07-13T11:53:09;96829.90;;;31.21;17.29
47080;BME280;33067;49.296;14.470;2023-07-13T11:55:38;96821.25;;;32.01;16.84
47080;BME280;33067;49.296;14.470;2023-07-13T11:58:00;96812.55;;;32.08;17.06
47080;BME280;33067;49.296;14.470;2023-07-13T12:00:29;96816.10;;;31.09;17.61
47080;BME280;33067;49.296;14.470;2023-07-13T12:02:53;96824.49;;;31.34;17.52
47080;BME280;33067;49.296;14.470;2023-07-13T12:05:17;96836.46;;;31.37;17.14
47080;BME280;33067;49.296;14.470;2023-07-13T12:07:42;96841.23;;;31.54;16.45
47080;BME280;33067;49.296;14.470;2023-07-13T12:10:18;96844.22;;;31.30;16.52
47080;BME280;33067;49.296;14.470;2023-07-13T12:12:33;96837.93;;;31.72;16.59
47080;BME280;33067;49.296;14.470;2023-07-13T12:14:58;96832.26;;;32.01;16.04
47080;BME280;33067;49.296;14.470;2023-07-13T12:17:25;96832.54;;;32.11;15.89
47080;BME280;33067;49.296;14.470;2023-07-13T12:19:51;96829.20;;;31.86;16.00
47080;BME280;33067;49.296;14.470;2023-07-13T12:22:17;96833.93;;;31.59;15.80
47080;BME280;33067;49.296;14.470;2023-07-13T12:24:42;96834.03;;;31.68;16.08
47080;BME280;33067;49.296;14.470;2023-07-13T12:27:18;96833.36;;;30.70;16.90
47080;BME280;33067;49.296;14.470;2023-07-13T12:29:33;96837.07;;;30.62;17.21
47080;BME280;33067;49.296;14.470;2023-07-13T12:31:58;96838.80;;;30.83;17.07
47080;BME280;33067;49.296;14.470;2023-07-13T12:34:25;96842.03;;;31.16;17.14
47080;BME280;33067;49.296;14.470;2023-07-13T12:36:52;96841.99;;;31.51;17.08
47080;BME280;33067;49.296;14.470;2023-07-13T12:39:17;96830.74;;;31.82;16.83
47080;BME280;33067;49.296;14.470;2023-07-13T12:41:41;96833.61;;;31.81;16.71
47080;BME280;33067;49.296;14.470;2023-07-13T12:44:11;96830.88;;;31.79;16.79